Time;durP1;ratioP1;P1;durP2;ratioP2;P2;SDS_P1;SDS_P2;PMS_P1;PMS_P2;Temp;Humidity;BMP_temperature;BMP_pressure;BME280_temperature;BME280_humidity;BME280_pressure;Samples;Min_cycle;Max_cycle;Signal;HPM_P1;HPM_P2
2022/03/21 00:01:00;;;;;;;76.22;44.60;;;;;;;-0.41;86.68;102914.72;5054261;28;20029;-72
2022/03/21 00:03:28;;;;;;;75.43;44.90;;;;;;;-0.44;86.78;102924.78;5054022;28;20029;-72
2022/03/21 00:05:55;;;;;;;78.50;44.30;;;;;;;-0.43;87.25;102917.97;5054785;28;20029;-72
2022/03/21 00:08:24;;;;;;;82.35;45.95;;;;;;;-0.41;87.09;102919.84;5054562;28;20032;-72
2022/03/21 00:10:53;;;;;;;76.38;43.42;;;;;;;-0.42;87.77;102922.34;5053566;28;20036;-72
2022/03/21 00:13:19;;;;;;;77.47;43.67;;;;;;;-0.42;88.01;102919.78;5054739;28;20039;-72
2022/03/21 00:15:48;;;;;;;74.90;44.10;;;;;;;-0.44;88.02;102919.66;5054639;28;20025;-72
2022/03/21 00:18:15;;;;;;;79.35;44.70;;;;;;;-0.45;87.95;102925.59;5053661;28;20017;-72
2022/03/21 00:20:41;;;;;;;78.60;44.08;;;;;;;-0.52;88.76;102923.50;5054294;28;20025;-72
2022/03/21 00:23:07;;;;;;;73.88;43.55;;;;;;;-0.57;88.65;102928.34;5054364;28;20021;-72
2022/03/21 00:25:32;;;;;;;75.57;45.05;;;;;;;-0.65;88.55;102916.81;5054214;28;20416;-72
2022/03/21 00:27:58;;;;;;;75.72;44.28;;;;;;;-0.66;88.99;102937.22;5054389;28;20036;-72
2022/03/21 00:30:24;;;;;;;77.45;43.80;;;;;;;-0.72;89.27;102924.94;5053383;28;20048;-72
2022/03/21 00:32:49;;;;;;;80.43;43.97;;;;;;;-0.77;89.26;102934.94;5054176;28;20103;-71
2022/03/21 00:35:15;;;;;;;78.93;44.75;;;;;;;-0.81;89.65;102939.81;5054223;28;20024;-72
2022/03/21 00:37:41;;;;;;;75.43;44.70;;;;;;;-0.89;89.97;102941.91;5053522;28;20025;-72
2022/03/21 00:40:08;;;;;;;74.25;42.13;;;;;;;-0.94;90.38;102940.78;5054586;28;20389;-72
2022/03/21 00:42:38;;;;;;;74.10;43.95;;;;;;;-0.94;90.66;102943.34;5054085;28;20021;-72
2022/03/21 00:45:05;;;;;;;77.05;42.65;;;;;;;-0.87;90.40;102935.22;5053569;28;20029;-72
2022/03/21 00:47:31;;;;;;;76.05;43.67;;;;;;;-0.82;90.11;102949.19;5053894;28;20040;-72
2022/03/21 00:49:57;;;;;;;77.75;43.67;;;;;;;-0.86;89.99;102941.22;5053822;28;20285;-72
2022/03/21 00:52:23;;;;;;;76.03;43.67;;;;;;;-0.90;90.19;102944.41;5052865;28;20400;-72
2022/03/21 00:54:48;;;;;;;82.75;43.72;;;;;;;-0.93;90.40;102947.66;5053679;28;20448;-72
2022/03/21 00:57:14;;;;;;;83.03;45.67;;;;;;;-1.00;90.54;102938.75;5053913;28;20051;-72
2022/03/21 00:59:39;;;;;;;79.43;44.20;;;;;;;-1.01;90.48;102938.69;5052965;28;20400;-72
2022/03/21 01:02:04;;;;;;;75.95;44.50;;;;;;;-1.01;90.65;102948.91;5054020;28;20032;-72
2022/03/21 01:04:29;;;;;;;77.85;45.28;;;;;;;-1.04;90.38;102943.63;5053440;28;20029;-72
2022/03/21 01:06:55;;;;;;;76.75;43.95;;;;;;;-1.09;90.86;102945.03;5052990;28;20031;-72
2022/03/21 01:09:20;;;;;;;81.82;45.55;;;;;;;-1.08;91.18;102955.38;5053603;28;20060;-72
2022/03/21 01:11:46;;;;;;;76.25;44.88;;;;;;;-1.15;91.15;102965.13;5052460;28;20039;-72
2022/03/21 01:14:11;;;;;;;77.15;43.22;;;;;;;-1.19;91.54;102956.41;5052675;28;20100;-72
2022/03/21 01:16:37;;;;;;;79.75;43.92;;;;;;;-1.16;91.82;102956.59;5053331;28;20550;-71
2022/03/21 01:19:03;;;;;;;78.43;43.95;;;;;;;-1.20;91.35;102952.97;5053636;28;20083;-72
2022/03/21 01:21:32;;;;;;;80.38;44.88;;;;;;;-1.19;91.38;102956.41;5052372;28;20055;-71
2022/03/21 01:23:58;;;;;;;77.10;44.33;;;;;;;-1.21;91.54;102958.88;5053035;28;20515;-72
2022/03/21 01:26:23;;;;;;;79.20;43.38;;;;;;;-1.17;91.65;102967.63;5053213;28;20024;-71
2022/03/21 01:28:49;;;;;;;74.47;44.33;;;;;;;-1.23;91.02;102965.56;5052210;28;20103;-72
2022/03/21 01:31:14;;;;;;;78.35;44.83;;;;;;;-1.25;91.75;102956.91;5053149;28;20083;-71
2022/03/21 01:33:40;;;;;;;79.50;44.83;;;;;;;-1.31;91.47;102956.59;5052034;28;20033;-72
2022/03/21 01:36:07;;;;;;;79.45;44.80;;;;;;;-1.29;91.96;102964.34;5053564;28;20045;-72
2022/03/21 01:38:33;;;;;;;77.18;46.08;;;;;;;-1.30;92.03;102958.34;5053050;28;20083;-72
2022/03/21 01:40:58;;;;;;;72.82;43.35;;;;;;;-1.33;91.81;102953.03;5052294;28;20025;-72
2022/03/21 01:43:23;;;;;;;78.72;43.50;;;;;;;-1.31;91.75;102966.81;5052810;28;20091;-72
2022/03/21 01:45:48;;;;;;;80.68;43.03;;;;;;;-1.34;91.60;102963.16;5052814;28;20067;-72
2022/03/21 01:48:14;;;;;;;79.05;45.00;;;;;;;-1.33;91.82;102959.84;5051983;28;20032;-71
2022/03/21 01:50:41;;;;;;;75.00;42.70;;;;;;;-1.30;91.34;102960.91;5052600;28;20106;-72
2022/03/21 01:55:50;;;;;;;79.18;44.15;;;;;;;-1.39;91.82;102952.69;5052183;28;20082;-72
2022/03/21 01:58:16;;;;;;;76.95;41.92;;;;;;;-1.44;92.16;102948.94;5052731;28;20029;-71
2022/03/21 02:00:43;;;;;;;77.90;44.17;;;;;;;-1.43;92.22;102956.72;5052339;28;20025;-72
2022/03/21 02:03:08;;;;;;;80.70;43.97;;;;;;;-1.45;91.86;102957.41;5052344;28;20024;-71
2022/03/21 02:05:36;;;;;;;77.35;44.35;;;;;;;-1.51;92.23;102957.94;5052512;28;20515;-72
2022/03/21 02:08:02;;;;;;;75.70;43.08;;;;;;;-1.55;92.34;102966.22;5052649;28;20029;-71
2022/03/21 02:10:28;;;;;;;78.13;45.63;;;;;;;-1.56;92.47;102967.03;5051582;28;20043;-71
2022/03/21 02:12:54;;;;;;;80.75;46.05;;;;;;;-1.55;92.13;102961.09;5052418;28;20021;-72
2022/03/21 02:15:19;;;;;;;77.75;44.78;;;;;;;-1.57;92.48;102966.91;5052075;28;20527;-72
2022/03/21 02:17:46;;;;;;;81.60;46.67;;;;;;;-1.60;92.99;102971.84;5051716;28;20036;-72
2022/03/21 02:20:16;;;;;;;77.40;44.60;;;;;;;-1.63;93.47;102966.56;5052346;28;20033;-72
2022/03/21 02:23:07;;;;;;;86.90;46.28;;;;;;;-1.65;93.33;102959.66;5051429;28;20020;-72
2022/03/21 02:25:33;;;;;;;78.95;43.67;;;;;;;-1.62;93.29;102969.22;5052022;28;20029;-71
2022/03/21 02:28:02;;;;;;;82.60;43.75;;;;;;;-1.59;93.60;102963.41;5052044;28;20025;-71
2022/03/21 02:30:30;;;;;;;80.75;45.22;;;;;;;-1.61;93.89;102975.22;5051048;28;20044;-71
2022/03/21 02:32:56;;;;;;;81.68;43.45;;;;;;;-1.69;93.81;102972.19;5052107;28;20025;-71
2022/03/21 02:35:24;;;;;;;84.80;45.70;;;;;;;-1.70;94.13;102971.31;5051857;28;20017;-71
2022/03/21 02:37:50;;;;;;;79.30;43.13;;;;;;;-1.73;94.42;102975.38;5051141;28;20111;-71
2022/03/21 02:40:16;;;;;;;80.97;45.55;;;;;;;-1.74;94.63;102978.69;5050995;28;20120;-72
2022/03/21 02:42:42;;;;;;;78.30;44.55;;;;;;;-1.74;94.56;102966.78;5051645;28;20110;-72
2022/03/21 02:45:08;;;;;;;77.47;44.15;;;;;;;-1.75;94.81;102967.59;5051226;28;20021;-72
2022/03/21 02:47:34;;;;;;;80.35;45.80;;;;;;;-1.77;94.70;102968.28;5051546;28;20036;-71
2022/03/21 02:50:00;;;;;;;81.28;45.05;;;;;;;-1.78;94.72;102967.41;5051692;28;20024;-72
2022/03/21 02:52:28;;;;;;;86.18;45.28;;;;;;;-1.77;94.75;102968.28;5050602;28;20045;-71
2022/03/21 02:54:53;;;;;;;83.30;45.00;;;;;;;-1.81;94.69;102967.22;5051292;28;20489;-72
2022/03/21 02:57:18;;;;;;;81.88;44.75;;;;;;;-1.84;95.23;102959.34;5051711;28;20120;-72
2022/03/21 02:59:43;;;;;;;86.20;45.50;;;;;;;-1.85;94.97;102965.25;5050785;28;20040;-71
2022/03/21 03:02:09;;;;;;;75.38;43.20;;;;;;;-1.87;95.03;102966.81;5051972;28;20029;-71
2022/03/21 03:04:35;;;;;;;83.82;45.22;;;;;;;-1.88;95.07;102967.63;5051785;28;20033;-71
2022/03/21 03:07:00;;;;;;;79.40;43.40;;;;;;;-1.88;95.06;102963.41;5050662;28;20108;-72
2022/03/21 03:09:26;;;;;;;81.70;45.38;;;;;;;-1.90;95.32;102961.53;5051219;28;20025;-71
2022/03/21 03:11:51;;;;;;;84.68;45.35;;;;;;;-2.00;95.16;102954.09;5051191;28;20029;-72
2022/03/21 03:14:16;;;;;;;81.75;45.05;;;;;;;-1.92;95.82;102965.69;5050659;28;20104;-71
2022/03/21 03:16:42;;;;;;;80.00;44.97;;;;;;;-1.89;95.50;102961.63;5051170;28;20040;-71
2022/03/21 03:19:07;;;;;;;81.75;45.50;;;;;;;-1.89;95.38;102963.31;5050891;28;20492;-72
2022/03/21 03:21:41;;;;;;;82.22;45.53;;;;;;;-1.96;95.70;102963.75;5051088;28;20071;-72
2022/03/21 03:24:09;;;;;;;80.18;44.17;;;;;;;-1.93;95.86;102969.00;5051341;28;20108;-72
2022/03/21 03:26:34;;;;;;;81.68;44.05;;;;;;;-1.93;95.71;102971.56;5050635;28;20086;-72
2022/03/21 03:29:00;;;;;;;82.13;45.08;;;;;;;-1.95;95.57;102968.94;5051437;28;20033;-72
2022/03/21 03:31:25;;;;;;;79.30;44.30;;;;;;;-1.97;95.75;102967.06;5051047;28;20022;-72
2022/03/21 03:33:51;;;;;;;81.93;45.80;;;;;;;-2.00;96.16;102979.66;5050601;28;20032;-71
2022/03/21 03:36:17;;;;;;;85.35;45.95;;;;;;;-2.00;96.39;102979.66;5055081;28;20044;-72
2022/03/21 03:38:44;;;;;;;79.65;45.33;;;;;;;-2.00;95.96;102980.53;5055070;28;20033;-71
2022/03/21 03:41:09;;;;;;;83.00;44.78;;;;;;;-1.98;95.91;102976.41;5054736;28;20083;-71
2022/03/21 03:43:36;;;;;;;83.45;45.42;;;;;;;-2.04;95.94;102985.38;5055478;28;20036;-72
2022/03/21 03:46:01;;;;;;;81.57;44.25;;;;;;;-2.06;96.03;102980.19;5055373;28;20524;-71
2022/03/21 03:48:26;;;;;;;84.43;46.13;;;;;;;-2.09;96.12;102979.06;5054222;28;20104;-72
2022/03/21 03:50:51;;;;;;;83.78;44.45;;;;;;;-2.07;96.31;102982.63;5054808;28;20534;-72
2022/03/21 03:53:20;;;;;;;83.32;46.28;;;;;;;-2.10;96.35;102982.44;5054721;28;20114;-71
2022/03/21 03:55:46;;;;;;;84.38;46.65;;;;;;;-2.17;96.12;102974.38;5054377;28;20021;-71
2022/03/21 03:58:11;;;;;;;82.43;45.75;;;;;;;-2.18;96.58;102989.63;5055144;28;20021;-71
2022/03/21 04:00:37;;;;;;;89.72;45.97;;;;;;;-2.25;96.86;102980.69;5054937;28;20021;-71
2022/03/21 04:05:47;;;;;;;85.40;44.85;;;;;;;-2.23;96.52;102988.44;5055080;28;20499;-71
2022/03/21 04:08:12;;;;;;;88.18;47.30;;;;;;;-2.19;96.64;102987.84;5054466;28;20021;-71
2022/03/21 04:10:37;;;;;;;82.53;44.50;;;;;;;-2.19;96.86;102987.84;5054439;28;20025;-71
2022/03/21 04:13:03;;;;;;;87.85;46.33;;;;;;;-2.25;96.72;102985.81;5055064;28;20036;-71
2022/03/21 04:15:28;;;;;;;83.07;45.58;;;;;;;-2.26;96.64;102991.69;5053723;28;20514;-71
2022/03/21 04:17:59;;;;;;;88.50;46.88;;;;;;;-2.23;97.11;102988.44;5054547;28;20021;-72
2022/03/21 04:20:24;;;;;;;85.82;48.03;;;;;;;-2.26;96.80;102984.00;5054288;28;20354;-72
2022/03/21 04:22:49;;;;;;;92.43;47.65;;;;;;;-2.25;97.02;102988.34;5053715;28;20060;-72
2022/03/21 04:25:15;;;;;;;93.05;49.10;;;;;;;-2.31;97.20;102985.41;5054522;28;20025;-72
2022/03/21 04:27:40;;;;;;;89.78;49.42;;;;;;;-2.32;97.06;102986.19;5054128;28;20112;-72
2022/03/21 04:30:06;;;;;;;92.45;48.22;;;;;;;-2.32;97.51;102988.75;5053877;28;20175;-72
2022/03/21 04:32:32;;;;;;;87.47;46.22;;;;;;;-2.27;97.79;102982.25;5054106;28;20111;-72
2022/03/21 04:34:57;;;;;;;90.55;47.10;;;;;;;-2.29;97.62;102981.28;5054246;28;20063;-72
2022/03/21 04:37:23;;;;;;;85.20;45.97;;;;;;;-2.32;97.76;102988.75;5053565;28;20033;-72
2022/03/21 04:39:48;;;;;;;89.30;47.45;;;;;;;-2.33;97.77;102978.44;5054297;28;20052;-72
2022/03/21 04:42:15;;;;;;;87.50;46.45;;;;;;;-2.31;97.79;102982.84;5054187;28;20506;-71
2022/03/21 04:44:40;;;;;;;87.07;47.03;;;;;;;-2.33;97.73;102983.53;5053169;28;20037;-72
2022/03/21 04:47:06;;;;;;;84.57;46.45;;;;;;;-2.31;98.43;102997.31;5054232;28;20025;-72
2022/03/21 04:49:32;;;;;;;91.80;48.97;;;;;;;-2.38;98.49;102984.13;5053740;28;20035;-72
2022/03/21 04:51:57;;;;;;;89.50;46.53;;;;;;;-2.37;98.27;102990.13;5052708;28;20135;-72
2022/03/21 04:54:22;;;;;;;90.75;47.70;;;;;;;-2.39;98.88;102992.59;5053877;28;20456;-72
2022/03/21 04:56:48;;;;;;;87.40;47.20;;;;;;;-2.40;98.80;103003.56;5053827;28;20041;-72
2022/03/21 04:59:13;;;;;;;88.05;47.40;;;;;;;-2.40;99.12;102998.47;5053020;28;20071;-72
2022/03/21 05:01:38;;;;;;;86.55;43.63;;;;;;;-2.41;98.93;102993.28;5053667;28;20037;-72
2022/03/21 05:04:04;;;;;;;91.40;46.80;;;;;;;-2.39;98.90;103001.91;5053992;28;20094;-72
2022/03/21 05:06:29;;;;;;;92.60;48.88;;;;;;;-2.40;98.74;103003.56;5052990;28;20036;-72
2022/03/21 05:08:54;;;;;;;90.50;48.10;;;;;;;-2.41;99.00;103014.59;5053831;28;20056;-72
2022/03/21 05:11:20;;;;;;;89.93;46.45;;;;;;;-2.47;99.50;103000.53;5053418;28;20045;-72
2022/03/21 05:13:45;;;;;;;87.60;48.33;;;;;;;-2.42;98.86;103015.38;5052799;28;20025;-72
2022/03/21 05:16:10;;;;;;;90.05;47.47;;;;;;;-2.41;99.09;103014.59;5053494;28;20384;-72
2022/03/21 05:18:36;;;;;;;90.35;46.38;;;;;;;-2.45;99.21;103006.66;5052692;28;20365;-72
2022/03/21 05:21:05;;;;;;;92.40;47.65;;;;;;;-2.38;99.12;103014.78;5053291;28;20032;-72
2022/03/21 05:31:43;;;;;;;89.90;47.53;;;;;;;-2.43;98.75;103003.38;5053138;28;20036;-71
2022/03/21 05:36:53;;;;;;;84.40;45.92;;;;;;;-2.50;98.98;103011.44;5053407;28;20096;-71
2022/03/21 05:39:18;;;;;;;91.93;46.67;;;;;;;-2.52;99.13;103015.56;5052945;28;20033;-71
2022/03/21 05:41:43;;;;;;;89.97;46.40;;;;;;;-2.56;99.37;103007.59;5052418;28;20112;-72
2022/03/21 05:44:11;;;;;;;94.68;48.20;;;;;;;-2.52;99.66;103010.44;5053515;28;20028;-72
2022/03/21 05:46:36;;;;;;;92.20;45.40;;;;;;;-2.47;99.63;103008.22;5053116;28;20025;-72
2022/03/21 05:49:02;;;;;;;89.25;45.70;;;;;;;-2.46;99.66;103015.94;5052123;28;20135;-71
2022/03/21 05:51:30;;;;;;;91.45;47.08;;;;;;;-2.46;99.30;103008.28;5052455;28;20094;-72
2022/03/21 05:53:57;;;;;;;93.32;46.85;;;;;;;-2.44;100.00;103016.06;5051941;28;20384;-71
2022/03/21 05:56:25;;;;;;;88.47;46.25;;;;;;;-2.44;100.00;103014.41;5052778;28;20025;-71
2022/03/21 05:58:51;;;;;;;85.53;44.67;;;;;;;-2.43;100.00;103012.72;5052217;28;20400;-71
2022/03/21 06:01:21;;;;;;;90.72;47.03;;;;;;;-2.45;100.00;103016.88;5051893;28;20021;-72
2022/03/21 06:03:48;;;;;;;86.07;45.95;;;;;;;-2.38;100.00;103024.13;5052406;28;20029;-71
2022/03/21 06:06:13;;;;;;;86.60;45.03;;;;;;;-2.36;100.00;103019.97;5052580;28;20029;-71
2022/03/21 06:08:39;;;;;;;81.70;45.85;;;;;;;-2.30;100.00;103025.50;5051552;28;20577;-71
2022/03/21 06:11:04;;;;;;;92.07;45.63;;;;;;;-2.23;100.00;103024.22;5053072;28;20028;-72
2022/03/21 06:13:37;;;;;;;85.07;44.10;;;;;;;-2.18;100.00;103031.38;5052573;28;20385;-72
2022/03/21 06:16:04;;;;;;;89.25;46.00;;;;;;;-2.13;100.00;103029.09;5051925;28;20013;-72
2022/03/21 06:18:34;;;;;;;88.50;46.30;;;;;;;-2.09;100.00;103032.75;5052254;28;20033;-72
2022/03/21 06:21:00;;;;;;;89.43;44.83;;;;;;;-2.03;100.00;103033.13;5052031;28;20511;-72
2022/03/21 06:23:26;;;;;;;88.97;46.30;;;;;;;-2.00;100.00;103031.66;5051582;28;20025;-72
2022/03/21 06:25:53;;;;;;;92.25;46.53;;;;;;;-1.93;100.00;103038.03;5052365;28;20021;-72
2022/03/21 06:28:19;;;;;;;88.35;45.45;;;;;;;-1.89;100.00;103032.34;5052319;28;20024;-72
2022/03/21 06:30:44;;;;;;;84.75;44.72;;;;;;;-1.84;100.00;103040.28;5051291;28;20358;-72
2022/03/21 06:33:10;;;;;;;88.90;45.15;;;;;;;-1.79;100.00;103037.25;5052161;28;20456;-71
2022/03/21 06:35:35;;;;;;;85.95;45.53;;;;;;;-1.71;100.00;103035.13;5051805;28;20033;-72
2022/03/21 06:38:00;;;;;;;83.70;44.80;;;;;;;-1.63;100.00;103040.75;5051096;28;20025;-71
2022/03/21 06:40:27;;;;;;;85.90;43.75;;;;;;;-1.56;100.00;103041.22;5051681;28;20075;-71
2022/03/21 06:42:52;;;;;;;86.22;42.90;;;;;;;-1.49;100.00;103042.47;5051962;28;20079;-71
2022/03/21 06:45:17;;;;;;;84.15;44.88;;;;;;;-1.43;100.00;103043.72;5050912;28;20115;-71
2022/03/21 06:47:42;;;;;;;83.40;42.80;;;;;;;-1.35;100.00;103050.97;5051624;28;20033;-72
2022/03/21 06:50:08;;;;;;;85.35;46.53;;;;;;;-1.28;100.00;103051.44;5050872;28;20017;-72
2022/03/21 06:52:38;;;;;;;86.03;45.70;;;;;;;-1.19;100.00;103049.41;5051462;28;20392;-72
2022/03/21 06:55:07;;;;;;;84.05;43.90;;;;;;;-1.09;100.00;103052.53;5052206;28;20028;-72
2022/03/21 06:57:33;;;;;;;90.78;47.17;;;;;;;-0.99;100.00;103055.72;5050550;28;20021;-72
2022/03/21 06:59:58;;;;;;;85.03;45.60;;;;;;;-0.90;100.00;103051.94;5051675;28;20031;-72
2022/03/21 07:02:23;;;;;;;83.63;44.67;;;;;;;-0.84;100.00;103054.88;5051467;28;20032;-72
2022/03/21 07:04:49;;;;;;;91.13;46.47;;;;;;;-0.73;100.00;103057.25;5050769;28;20048;-72
2022/03/21 07:07:14;;;;;;;93.45;49.90;;;;;;;-0.53;100.00;103055.84;5051707;28;20366;-72
2022/03/21 07:09:39;;;;;;;100.00;51.90;;;;;;;-0.36;100.00;103061.94;5050399;28;20111;-72
2022/03/21 07:12:05;;;;;;;96.15;50.15;;;;;;;-0.22;100.00;103060.16;5050998;28;20496;-72
2022/03/21 07:14:30;;;;;;;98.85;53.78;;;;;;;-0.05;100.00;103050.84;5051495;28;20040;-72
2022/03/21 07:16:55;;;;;;;102.63;52.55;;;;;;;0.12;100.00;103054.31;5051411;28;20033;-72
2022/03/21 07:19:21;;;;;;;99.85;53.00;;;;;;;0.28;100.00;103061.16;5050263;28;20412;-72
2022/03/21 07:21:46;;;;;;;104.20;51.42;;;;;;;0.43;100.00;103068.03;5050956;28;20112;-71
2022/03/21 07:24:12;;;;;;;92.32;50.63;;;;;;;0.61;100.00;103062.97;5051373;28;20075;-72
2022/03/21 07:26:38;;;;;;;95.75;49.97;;;;;;;0.79;100.00;103065.63;5050277;28;20032;-72
2022/03/21 07:29:07;;;;;;;95.30;51.58;;;;;;;1.01;100.00;103070.16;5051694;28;20033;-72
2022/03/21 07:31:33;;;;;;;103.68;52.72;;;;;;;1.14;100.00;103062.31;5051502;28;20471;-72
2022/03/21 07:33:59;;;;;;;105.63;55.63;;;;;;;1.32;100.00;103066.59;5050435;28;20108;-72
2022/03/21 07:36:24;;;;;;;121.20;59.70;;;;;;;1.47;100.00;103069.94;5051174;28;20112;-72
2022/03/21 07:38:50;;;;;;;114.93;58.53;;;;;;;1.62;100.00;103069.78;5051296;28;20033;-72
2022/03/21 07:41:15;;;;;;;107.25;56.45;;;;;;;1.76;100.00;103065.31;5050465;28;20021;-72
2022/03/21 07:43:40;;;;;;;103.40;53.00;;;;;;;1.92;100.00;103056.66;5051041;28;20419;-72
2022/03/21 07:48:51;;;;;;;93.78;48.80;;;;;;;2.19;100.00;103068.25;5051568;28;20087;-72
2022/03/21 07:51:16;;;;;;;88.93;48.13;;;;;;;2.38;100.00;103067.38;5050808;28;20132;-72
2022/03/21 07:53:42;;;;;;;83.63;42.05;;;;;;;2.55;100.00;103047.53;5050196;28;20151;-72
2022/03/21 07:56:08;;;;;;;81.78;44.25;;;;;;;2.79;100.00;103060.66;5051433;28;20017;-72
2022/03/21 07:58:33;;;;;;;76.97;40.25;;;;;;;3.00;100.00;103066.72;5050845;28;20037;-72
2022/03/21 08:00:59;;;;;;;68.57;37.08;;;;;;;3.22;100.00;103067.66;5050241;28;20078;-72
2022/03/21 08:03:25;;;;;;;69.32;38.53;;;;;;;3.43;100.00;103053.09;5050991;28;20022;-72
2022/03/21 08:05:52;;;;;;;67.90;35.90;;;;;;;3.60;100.00;103061.50;5051056;28;20036;-72
2022/03/21 08:08:17;;;;;;;67.80;35.90;;;;;;;3.75;100.00;103058.66;5050548;28;20032;-72
2022/03/21 08:10:43;;;;;;;66.93;34.90;;;;;;;3.90;99.89;103056.69;5050688;28;20033;-72
2022/03/21 08:13:08;;;;;;;56.05;29.92;;;;;;;4.07;98.40;103053.88;5051209;28;20025;-72
2022/03/21 08:15:36;;;;;;;61.53;29.55;;;;;;;4.30;97.18;103050.47;5049874;28;20017;-72
2022/03/21 08:18:03;;;;;;;55.70;28.15;;;;;;;4.51;96.18;103058.13;5051184;28;20021;-72
2022/03/21 08:20:34;;;;;;;47.03;25.33;;;;;;;4.74;93.13;103058.09;5051420;28;20382;-72
2022/03/21 08:23:01;;;;;;;54.78;26.02;;;;;;;4.95;93.25;103057.97;5053868;28;20032;-72
2022/03/21 08:25:27;;;;;;;49.05;24.00;;;;;;;5.08;90.99;103060.16;5054622;28;20414;-72
2022/03/21 08:27:53;;;;;;;41.72;21.27;;;;;;;5.23;89.72;103064.97;5054360;28;20044;-72
2022/03/21 08:30:19;;;;;;;40.35;21.90;;;;;;;5.40;88.21;103059.56;5053318;28;20035;-72
2022/03/21 08:32:48;;;;;;;41.22;21.25;;;;;;;5.54;86.00;103054.81;5054511;28;20051;-72
2022/03/21 08:35:16;;;;;;;37.92;20.08;;;;;;;5.69;86.29;103046.69;5054417;28;20029;-72
2022/03/21 08:37:41;;;;;;;36.47;18.88;;;;;;;5.86;83.73;103050.69;5053423;28;20025;-72
2022/03/21 08:40:08;;;;;;;35.03;18.63;;;;;;;6.00;83.02;103052.84;5054494;28;20025;-72
2022/03/21 08:42:34;;;;;;;32.28;19.25;;;;;;;6.18;82.53;103056.00;5053317;28;20036;-72
2022/03/21 08:44:59;;;;;;;36.30;19.15;;;;;;;6.29;81.02;103052.00;5053941;28;20037;-72
2022/03/21 08:47:25;;;;;;;32.83;19.05;;;;;;;6.47;80.95;103050.78;5053924;28;20033;-72
2022/03/21 08:49:50;;;;;;;35.15;19.38;;;;;;;6.61;80.38;103048.59;5053055;28;20571;-72
2022/03/21 08:52:16;;;;;;;33.63;18.83;;;;;;;6.80;79.04;103050.84;5053787;28;20049;-72
2022/03/21 08:54:41;;;;;;;34.88;19.25;;;;;;;6.91;78.55;103057.22;5053922;28;20021;-72
2022/03/21 08:57:07;;;;;;;30.63;17.27;;;;;;;7.01;77.79;103050.56;5053871;28;20025;-72
2022/03/21 08:59:32;;;;;;;32.63;19.23;;;;;;;7.13;77.14;103043.13;5053650;28;20174;-72
2022/03/21 09:01:58;;;;;;;31.45;18.55;;;;;;;7.26;77.22;103046.91;5053952;28;20032;-72
2022/03/21 09:04:23;;;;;;;31.33;18.35;;;;;;;7.36;76.33;103045.41;5052942;28;20381;-72
2022/03/21 09:06:49;;;;;;;33.60;18.88;;;;;;;7.51;75.13;103045.78;5053829;28;20029;-72
2022/03/21 09:09:18;;;;;;;27.77;17.58;;;;;;;7.67;74.58;103040.09;5053630;28;20029;-72
2022/03/21 09:11:44;;;;;;;35.25;19.17;;;;;;;7.82;74.40;103043.94;5052661;28;20098;-72
2022/03/21 09:14:10;;;;;;;29.52;18.08;;;;;;;7.95;73.00;103044.22;5053603;28;20025;-72
2022/03/21 09:16:39;;;;;;;35.22;18.20;;;;;;;8.11;71.82;103053.25;5053894;28;20036;-72
2022/03/21 09:19:05;;;;;;;35.70;17.83;;;;;;;8.26;71.49;103049.22;5052910;28;20017;-72
2022/03/21 09:21:31;;;;;;;30.92;17.83;;;;;;;8.36;71.25;103049.44;5053306;28;20048;-72
2022/03/21 09:23:56;;;;;;;32.00;17.55;;;;;;;8.53;70.94;103041.13;5053455;28;20036;-72
2022/03/21 09:26:22;;;;;;;30.15;15.88;;;;;;;8.63;69.21;103043.97;5052323;28;20036;-72
2022/03/21 09:28:48;;;;;;;27.00;15.05;;;;;;;8.80;68.59;103043.44;5053186;28;20025;-72
2022/03/21 09:31:14;;;;;;;31.38;16.40;;;;;;;8.89;67.86;103030.56;5053275;28;20075;-72
2022/03/21 09:33:41;;;;;;;25.77;16.23;;;;;;;8.94;68.53;103033.28;5051550;28;20028;-72
2022/03/21 09:36:07;;;;;;;32.53;16.48;;;;;;;9.09;67.77;103025.72;5053570;28;20021;-72
2022/03/21 09:38:32;;;;;;;26.52;15.65;;;;;;;9.29;67.18;103033.91;5053144;28;20037;-72
2022/03/21 09:40:58;;;;;;;28.95;16.77;;;;;;;9.42;66.38;103037.53;5052287;28;20071;-72
2022/03/21 09:43:24;;;;;;;32.95;16.05;;;;;;;9.54;64.97;103022.13;5052948;28;20380;-72
2022/03/21 09:45:51;;;;;;;23.77;15.23;;;;;;;9.65;64.09;103024.91;5052288;28;20053;-72
2022/03/21 09:48:19;;;;;;;26.90;16.25;;;;;;;9.73;63.81;103026.78;5053126;28;20035;-72
2022/03/21 09:50:45;;;;;;;27.70;16.55;;;;;;;9.87;63.90;103021.75;5052314;28;20111;-73
2022/03/21 09:53:14;;;;;;;28.30;17.63;;;;;;;10.01;63.39;103029.78;5052181;28;20506;-72
2022/03/21 09:55:41;;;;;;;33.90;16.33;;;;;;;10.04;62.17;103022.00;5052652;28;20539;-72
2022/03/21 09:58:09;;;;;;;32.95;16.50;;;;;;;10.21;62.82;103017.00;5053335;28;20108;-72
2022/03/21 10:00:36;;;;;;;28.80;16.38;;;;;;;10.29;62.02;103011.06;5052081;28;20041;-72
2022/03/21 10:03:02;;;;;;;32.38;17.02;;;;;;;10.48;62.00;103016.50;5052958;28;20071;-72
2022/03/21 10:05:41;;;;;;;26.35;16.42;;;;;;;10.62;62.02;103019.25;5052504;28;20377;-72
2022/03/21 10:08:17;;;;;;;30.95;16.02;;;;;;;10.79;61.49;103012.50;5052049;28;20052;-72
2022/03/21 10:10:53;;;;;;;30.98;16.33;;;;;;;10.88;60.88;103012.56;5052164;28;20098;-73
2022/03/21 10:13:20;;;;;;;30.58;16.75;;;;;;;10.98;59.27;103000.50;5052445;28;20079;-73
2022/03/21 10:15:46;;;;;;;32.45;17.17;;;;;;;11.07;59.40;103003.19;5051661;28;20021;-73
2022/03/21 10:18:12;;;;;;;34.05;17.45;;;;;;;11.13;59.17;103003.25;5052383;28;20501;-73
2022/03/21 10:20:39;;;;;;;28.05;16.85;;;;;;;11.22;59.23;102998.09;5052079;28;20025;-73
2022/03/21 10:23:23;;;;;;;29.75;16.88;;;;;;;11.36;60.05;102993.00;5052120;28;20412;-73
2022/03/21 10:25:49;;;;;;;28.92;16.95;;;;;;;11.66;57.70;102988.84;5052355;28;20029;-73
2022/03/21 10:28:36;;;;;;;30.13;17.67;;;;;;;11.75;58.32;102998.47;5051316;28;20032;-73
2022/03/21 10:31:03;;;;;;;31.55;16.48;;;;;;;11.89;57.31;102999.47;5052250;28;20131;-73
2022/03/21 10:33:28;;;;;;;28.52;17.35;;;;;;;11.94;55.59;102993.41;5052125;28;20103;-73
2022/03/21 10:35:54;;;;;;;28.60;18.05;;;;;;;12.07;56.67;102996.94;5051282;28;20426;-73
2022/03/21 10:38:33;;;;;;;29.15;17.63;;;;;;;12.18;57.72;103002.22;5052033;28;20021;-73
2022/03/21 10:41:09;;;;;;;30.48;16.55;;;;;;;12.33;56.86;102991.81;5051793;28;20385;-73
2022/03/21 10:43:35;;;;;;;29.45;17.65;;;;;;;12.49;54.87;102999.69;5050943;28;20110;-73
2022/03/21 10:46:02;;;;;;;33.50;17.90;;;;;;;12.54;54.95;102996.22;5051711;28;20472;-73
2022/03/21 10:48:29;;;;;;;29.98;18.38;;;;;;;12.58;53.71;102997.97;5051514;28;20465;-73
2022/03/21 10:50:57;;;;;;;33.30;18.17;;;;;;;12.72;54.73;102998.03;5050703;28;20049;-73
2022/03/21 10:53:24;;;;;;;29.33;17.65;;;;;;;12.88;54.71;102991.97;5051696;28;20035;-73
2022/03/21 10:56:08;;;;;;;30.00;17.85;;;;;;;13.01;55.36;102986.69;5051572;28;20112;-73
2022/03/21 10:58:43;;;;;;;29.30;19.60;;;;;;;13.13;52.85;102982.34;5051844;28;20025;-73
2022/03/21 11:01:29;;;;;;;30.08;18.42;;;;;;;13.13;54.74;102976.25;5052007;28;20092;-73
2022/03/21 11:03:57;;;;;;;28.67;17.48;;;;;;;13.17;53.02;102972.75;5050880;28;20108;-73
2022/03/21 11:06:23;;;;;;;32.08;17.77;;;;;;;13.33;53.85;102981.50;5051348;28;20025;-73
2022/03/21 11:08:52;;;;;;;30.48;19.00;;;;;;;13.46;53.40;102977.13;5051382;28;20396;-73
2022/03/21 11:11:18;;;;;;;30.42;18.45;;;;;;;13.53;52.83;102978.84;5050548;28;20029;-73
2022/03/21 11:13:44;;;;;;;32.20;18.90;;;;;;;13.65;53.70;102976.22;5051468;28;20055;-73
2022/03/21 11:16:10;;;;;;;29.75;18.60;;;;;;;13.75;52.21;102970.06;5051592;28;20465;-73
2022/03/21 11:18:35;;;;;;;31.38;18.73;;;;;;;13.88;52.78;102968.28;5050884;28;20024;-73
2022/03/21 11:21:01;;;;;;;29.17;18.83;;;;;;;14.10;52.71;102978.72;5051443;28;20075;-73
2022/03/21 11:23:26;;;;;;;33.38;18.00;;;;;;;14.25;52.56;102965.50;5051463;28;20029;-73
2022/03/21 11:25:57;;;;;;;29.08;18.67;;;;;;;14.42;50.62;102962.78;5050489;28;20021;-73